createdAt,value
2022-09-18T00:00:59.733Z,9.30
2022-09-18T00:03:28.209Z,9.30
2022-09-18T00:05:54.795Z,9.20
2022-09-18T00:08:21.633Z,9.20
2022-09-18T00:10:48.241Z,9.20
2022-09-18T00:13:15.265Z,9.10
2022-09-18T00:15:41.995Z,9.10
2022-09-18T00:18:09.148Z,9.20
2022-09-18T00:20:36.843Z,9.20
2022-09-18T00:23:03.468Z,9.30
2022-09-18T00:25:31.740Z,9.30
2022-09-18T00:27:58.362Z,9.30
2022-09-18T00:30:24.932Z,9.30
2022-09-18T00:32:51.629Z,9.30
2022-09-18T00:35:18.207Z,9.40
2022-09-18T00:37:44.750Z,9.40
2022-09-18T00:40:11.387Z,9.40
2022-09-18T00:42:38.025Z,9.50
2022-09-18T00:45:04.892Z,9.50
2022-09-18T00:47:50.447Z,9.50
2022-09-18T00:50:24.619Z,9.50
2022-09-18T00:52:58.449Z,9.50
2022-09-18T00:55:31.957Z,9.50
2022-09-18T00:58:01.020Z,9.50
2022-09-18T01:00:29.563Z,9.40
2022-09-18T01:02:56.480Z,9.40
2022-09-18T01:06:00.204Z,9.40
2022-09-18T01:08:43.282Z,9.30
2022-09-18T01:11:19.584Z,9.20
2022-09-18T01:14:00.638Z,9.10
2022-09-18T01:16:45.807Z,9.10
2022-09-18T01:19:43.500Z,9.00
2022-09-18T01:22:32.138Z,9.00
2022-09-18T01:25:06.297Z,8.90
2022-09-18T01:27:38.756Z,8.90
2022-09-18T01:30:08.670Z,8.90
2022-09-18T01:32:46.955Z,8.90
2022-09-18T01:35:42.603Z,8.90
2022-09-18T01:38:34.476Z,8.90
2022-09-18T01:41:14.372Z,8.90
2022-09-18T01:43:42.257Z,8.80
2022-09-18T01:46:13.880Z,8.80
2022-09-18T01:49:02.557Z,8.80
2022-09-18T01:51:52.778Z,8.80
2022-09-18T01:54:24.597Z,8.80
2022-09-18T01:57:15.061Z,8.80
2022-09-18T01:59:45.954Z,8.80
2022-09-18T02:02:24.682Z,8.70
2022-09-18T02:04:56.821Z,8.70
2022-09-18T02:07:39.499Z,8.70
2022-09-18T02:10:07.025Z,8.70
2022-09-18T02:12:36.172Z,8.60
2022-09-18T02:15:09.456Z,8.60
2022-09-18T02:17:59.069Z,8.70
2022-09-18T02:20:28.909Z,8.60
2022-09-18T02:23:02.336Z,8.60
2022-09-18T02:25:41.436Z,8.60
2022-09-18T02:28:11.024Z,8.50
2022-09-18T02:30:39.250Z,8.50
2022-09-18T02:33:40.969Z,8.50
2022-09-18T02:36:32.387Z,8.50
2022-09-18T02:39:17.013Z,8.50
2022-09-18T02:41:46.552Z,8.40
2022-09-18T02:44:24.603Z,8.50
2022-09-18T02:47:19.877Z,8.50
2022-09-18T02:50:09.486Z,8.50
2022-09-18T02:52:48.377Z,8.50
2022-09-18T02:55:29.953Z,8.60
2022-09-18T02:57:58.941Z,8.70
2022-09-18T03:00:27.282Z,8.70
2022-09-18T03:02:57.104Z,8.80
2022-09-18T03:05:23.856Z,8.80
2022-09-18T03:07:50.621Z,8.80
2022-09-18T03:10:17.310Z,8.90
2022-09-18T03:12:44.371Z,9.00
2022-09-18T03:15:11.442Z,9.00
2022-09-18T03:17:38.030Z,9.00
2022-09-18T03:20:07.220Z,9.10
2022-09-18T03:22:33.765Z,9.10
2022-09-18T03:25:00.308Z,9.10
2022-09-18T03:27:26.890Z,9.10
2022-09-18T03:29:53.460Z,9.10
2022-09-18T03:32:20.092Z,9.10
2022-09-18T03:34:47.033Z,9.10
2022-09-18T03:37:13.589Z,9.20
2022-09-18T03:39:40.387Z,9.20
2022-09-18T03:42:07.029Z,9.20
2022-09-18T03:44:33.563Z,9.20
2022-09-18T03:47:00.182Z,9.30
2022-09-18T03:49:26.809Z,9.30
2022-09-18T03:51:53.477Z,9.30
2022-09-18T03:54:20.049Z,9.20
2022-09-18T03:56:46.755Z,9.10
2022-09-18T03:59:13.532Z,9.00
2022-09-18T04:01:40.186Z,8.90
2022-09-18T04:04:06.833Z,8.90
2022-09-18T04:06:33.377Z,8.90
2022-09-18T04:08:59.997Z,8.90
2022-09-18T04:11:26.642Z,8.90
2022-09-18T04:13:53.229Z,8.80
2022-09-18T04:16:19.880Z,8.80
2022-09-18T04:18:46.456Z,8.70
2022-09-18T04:21:13.049Z,8.80
2022-09-18T04:23:39.617Z,8.70
2022-09-18T04:26:09.474Z,8.70
2022-09-18T04:28:37.426Z,8.70
2022-09-18T04:31:04.251Z,8.60
2022-09-18T04:33:30.918Z,8.60
2022-09-18T04:35:57.486Z,8.60
2022-09-18T04:38:27.555Z,8.60
2022-09-18T04:40:58.411Z,8.70
2022-09-18T04:43:26.038Z,8.70
2022-09-18T04:45:55.025Z,8.60
2022-09-18T04:48:22.586Z,8.60
2022-09-18T04:50:49.498Z,8.60
2022-09-18T04:53:16.205Z,8.60
2022-09-18T04:55:43.300Z,8.60
2022-09-18T04:58:10.048Z,8.70
2022-09-18T05:00:38.118Z,8.70
2022-09-18T05:03:08.582Z,8.80
2022-09-18T05:05:36.019Z,8.80
2022-09-18T05:08:03.489Z,8.90
2022-09-18T05:10:30.770Z,8.90
2022-09-18T05:12:57.345Z,8.90
2022-09-18T05:15:24.089Z,8.90
2022-09-18T05:17:59.264Z,8.90
2022-09-18T05:20:25.814Z,8.90
2022-09-18T05:22:52.370Z,8.90
2022-09-18T05:25:20.537Z,8.90
2022-09-18T05:27:58.428Z,9.00
2022-09-18T05:30:26.633Z,9.10
2022-09-18T05:33:01.544Z,9.10
2022-09-18T05:35:30.349Z,9.20
2022-09-18T05:37:57.001Z,9.30
2022-09-18T05:40:26.685Z,9.40
2022-09-18T05:42:53.491Z,9.60
2022-09-18T05:45:20.928Z,9.60
2022-09-18T05:47:57.494Z,9.70
2022-09-18T05:50:25.311Z,9.70
2022-09-18T05:53:14.065Z,9.70
2022-09-18T05:55:40.866Z,9.80
2022-09-18T05:58:12.392Z,9.80
2022-09-18T06:00:39.024Z,9.90
2022-09-18T06:03:08.906Z,9.90
2022-09-18T06:05:37.545Z,9.90
2022-09-18T06:08:06.601Z,10.00
2022-09-18T06:10:37.383Z,10.10
2022-09-18T06:13:06.075Z,10.30
2022-09-18T06:15:33.934Z,10.50
2022-09-18T06:18:00.580Z,10.70
2022-09-18T06:20:27.674Z,11.10
2022-09-18T06:22:54.570Z,11.20
2022-09-18T06:25:22.010Z,11.30
2022-09-18T06:27:53.409Z,11.30
2022-09-18T06:30:20.141Z,11.30
2022-09-18T06:32:46.682Z,11.20
2022-09-18T06:35:13.333Z,11.20
2022-09-18T06:37:39.865Z,11.30
2022-09-18T06:40:07.155Z,11.30
2022-09-18T06:42:33.813Z,11.50
2022-09-18T06:45:00.418Z,11.70
2022-09-18T06:47:26.981Z,12.00
2022-09-18T06:49:53.528Z,12.20
2022-09-18T06:52:20.088Z,12.30
2022-09-18T06:54:46.733Z,12.20
2022-09-18T06:57:13.324Z,12.00
2022-09-18T06:59:39.893Z,11.80
2022-09-18T07:02:18.597Z,11.70
2022-09-18T07:04:46.781Z,11.70
2022-09-18T07:07:13.335Z,11.90
2022-09-18T07:09:39.881Z,12.60
2022-09-18T07:12:06.603Z,14.30
2022-09-18T07:14:33.313Z,15.70
2022-09-18T07:17:00.004Z,16.20
2022-09-18T07:19:26.653Z,16.20
2022-09-18T07:21:53.427Z,16.00
2022-09-18T07:24:20.013Z,15.70
2022-09-18T07:26:46.626Z,15.50
2022-09-18T07:29:13.238Z,15.30
2022-09-18T07:31:39.878Z,15.40
2022-09-18T07:34:08.057Z,15.40
2022-09-18T07:36:34.711Z,15.30
2022-09-18T07:39:01.356Z,15.20
2022-09-18T07:41:27.953Z,15.10
2022-09-18T07:43:54.637Z,15.10
2022-09-18T07:46:21.660Z,15.00
2022-09-18T07:48:48.709Z,15.00
2022-09-18T07:51:15.623Z,14.90
2022-09-18T07:53:42.185Z,14.80
2022-09-18T07:56:12.145Z,14.60
2022-09-18T07:58:39.122Z,14.30
2022-09-18T08:01:06.301Z,14.20
2022-09-18T08:03:35.108Z,14.60
2022-09-18T08:06:04.807Z,15.00
2022-09-18T08:08:31.354Z,15.70
2022-09-18T08:10:58.042Z,16.80
2022-09-18T08:13:24.724Z,17.90
2022-09-18T08:15:51.350Z,18.60
2022-09-18T08:18:20.429Z,20.20
2022-09-18T08:20:47.008Z,22.10
2022-09-18T08:23:13.577Z,23.30
2022-09-18T08:25:41.194Z,23.70
2022-09-18T08:28:08.169Z,23.70
2022-09-18T08:30:35.449Z,23.60
2022-09-18T08:33:04.765Z,22.70
2022-09-18T08:35:31.931Z,21.80
2022-09-18T08:37:59.484Z,21.00
2022-09-18T08:41:03.285Z,20.50
2022-09-18T08:43:47.258Z,19.60
2022-09-18T08:46:24.379Z,18.70
2022-09-18T08:49:06.748Z,17.90
2022-09-18T08:51:42.518Z,18.60
2022-09-18T08:54:28.691Z,19.20
2022-09-18T08:56:56.933Z,18.90
2022-09-18T08:59:40.883Z,18.20
2022-09-18T09:02:37.211Z,18.10
2022-09-18T09:05:12.349Z,18.50
2022-09-18T09:08:07.722Z,20.30
2022-09-18T09:10:42.303Z,21.80
2022-09-18T09:13:38.821Z,22.80
2022-09-18T09:16:09.539Z,23.10
2022-09-18T09:19:09.929Z,24.60
2022-09-18T09:22:00.928Z,26.50
2022-09-18T09:24:35.800Z,27.70
2022-09-18T09:27:26.145Z,27.70
2022-09-18T09:30:02.569Z,28.20
2022-09-18T09:32:44.805Z,28.50
2022-09-18T09:35:20.350Z,28.20
2022-09-18T09:37:48.297Z,28.20
2022-09-18T09:40:47.668Z,28.00
2022-09-18T09:43:14.183Z,27.60
2022-09-18T09:45:48.321Z,27.10
2022-09-18T09:48:39.429Z,26.50
2022-09-18T09:51:22.491Z,26.10
2022-09-18T09:53:50.107Z,25.50
2022-09-18T09:56:40.036Z,24.50
2022-09-18T09:59:28.854Z,23.10
2022-09-18T10:02:25.504Z,21.70
2022-09-18T10:05:16.662Z,20.40
2022-09-18T10:08:07.452Z,19.10
2022-09-18T10:10:41.281Z,18.10
2022-09-18T10:13:21.913Z,17.10
2022-09-18T10:15:52.322Z,16.30
2022-09-18T10:18:25.728Z,15.80
2022-09-18T10:20:57.661Z,15.50
2022-09-18T10:23:38.942Z,15.20
2022-09-18T10:26:05.936Z,14.80
2022-09-18T10:28:32.693Z,14.60
2022-09-18T10:31:03.269Z,14.90
2022-09-18T10:33:42.893Z,15.50
2022-09-18T10:36:09.481Z,16.70
2022-09-18T10:38:38.462Z,17.90
2022-09-18T10:41:35.437Z,18.80
2022-09-18T10:44:20.501Z,19.80
2022-09-18T10:46:57.137Z,20.50
2022-09-18T10:49:27.645Z,21.20
2022-09-18T10:52:31.996Z,21.90
2022-09-18T10:55:08.092Z,22.40
2022-09-18T10:57:49.960Z,22.60
2022-09-18T11:00:19.548Z,22.70
2022-09-18T11:02:47.935Z,22.80
2022-09-18T11:05:47.413Z,22.50
2022-09-18T11:08:20.812Z,21.50
2022-09-18T11:10:50.607Z,20.20
2022-09-18T11:13:25.305Z,19.00
2022-09-18T11:15:58.302Z,18.00
2022-09-18T11:18:26.198Z,17.30
2022-09-18T11:20:55.472Z,17.20
2022-09-18T11:23:27.712Z,17.80
2022-09-18T11:26:21.642Z,18.60
2022-09-18T11:29:16.529Z,19.40
2022-09-18T11:31:55.041Z,19.30
2022-09-18T11:34:24.904Z,18.70
2022-09-18T11:36:56.327Z,18.00
2022-09-18T11:39:36.073Z,17.40
2022-09-18T11:42:12.328Z,16.90
2022-09-18T11:44:39.686Z,17.30
2022-09-18T11:47:17.685Z,17.80
2022-09-18T11:50:06.465Z,18.20
2022-09-18T11:52:43.952Z,18.30
2022-09-18T11:55:18.019Z,17.80
2022-09-18T11:57:55.106Z,17.50
2022-09-18T12:00:23.679Z,17.30
2022-09-18T12:02:59.594Z,17.00
2022-09-18T12:05:43.657Z,16.80
2022-09-18T12:08:20.285Z,17.30
2022-09-18T12:11:11.576Z,18.10
2022-09-18T12:14:13.588Z,18.30
2022-09-18T12:17:00.743Z,18.10
2022-09-18T12:19:49.202Z,18.00
2022-09-18T12:22:23.672Z,17.80
2022-09-18T12:24:50.457Z,17.60
2022-09-18T12:27:36.583Z,17.40
2022-09-18T12:30:09.592Z,17.30
2022-09-18T12:33:16.381Z,17.50
2022-09-18T12:36:17.656Z,18.00
2022-09-18T12:38:54.725Z,18.40
2022-09-18T12:41:32.051Z,18.80
2022-09-18T12:44:01.444Z,19.20
2022-09-18T12:46:49.157Z,19.20
2022-09-18T12:49:32.080Z,19.40
2022-09-18T12:52:19.464Z,19.40
2022-09-18T12:55:17.740Z,19.60
2022-09-18T12:57:58.608Z,19.70
2022-09-18T13:00:27.680Z,19.70
2022-09-18T13:03:13.765Z,19.60
2022-09-18T13:05:54.455Z,19.70
2022-09-18T13:08:30.224Z,19.50
2022-09-18T13:11:02.435Z,19.30
2022-09-18T13:13:45.686Z,18.80
2022-09-18T13:16:15.538Z,18.40
2022-09-18T13:18:52.568Z,17.90
2022-09-18T13:21:28.360Z,17.90
2022-09-18T13:23:56.047Z,18.10
2022-09-18T13:26:25.904Z,18.20
2022-09-18T13:28:52.963Z,18.50
2022-09-18T13:31:33.268Z,18.70
2022-09-18T13:34:06.378Z,18.90
2022-09-18T13:36:39.604Z,19.00
2022-09-18T13:39:19.027Z,19.20
2022-09-18T13:41:49.156Z,19.40
2022-09-18T13:44:24.277Z,19.70
2022-09-18T13:46:53.973Z,19.80
2022-09-18T13:49:42.091Z,19.80
2022-09-18T13:52:32.888Z,19.50
2022-09-18T13:55:00.756Z,19.10
2022-09-18T13:57:32.156Z,19.10
2022-09-18T14:00:06.795Z,19.10
2022-09-18T14:02:40.834Z,19.40
2022-09-18T14:05:31.012Z,19.60
2022-09-18T14:08:18.881Z,19.70
2022-09-18T14:11:11.390Z,19.80
2022-09-18T14:13:41.273Z,20.00
2022-09-18T14:16:29.533Z,19.80
2022-09-18T14:19:02.275Z,19.50
2022-09-18T14:21:39.844Z,19.10
2022-09-18T14:24:06.500Z,18.90
2022-09-18T14:26:37.343Z,18.60
2022-09-18T14:29:14.783Z,18.30
2022-09-18T14:31:44.127Z,17.90
2022-09-18T14:34:12.752Z,17.60
2022-09-18T14:36:46.226Z,17.40
2022-09-18T14:39:29.225Z,17.20
2022-09-18T14:41:57.669Z,17.00
2022-09-18T14:44:24.530Z,16.80
2022-09-18T14:46:57.457Z,16.70
2022-09-18T14:49:36.424Z,16.70
2022-09-18T14:52:04.878Z,16.70
2022-09-18T14:54:39.210Z,16.80
2022-09-18T14:57:14.412Z,16.80
2022-09-18T14:59:41.230Z,16.80
2022-09-18T15:02:21.888Z,16.80
2022-09-18T15:04:49.277Z,16.70
2022-09-18T15:07:18.555Z,16.70
2022-09-18T15:09:48.903Z,16.50
2022-09-18T15:12:21.308Z,16.30
2022-09-18T15:14:48.032Z,16.10
2022-09-18T15:17:24.049Z,15.90
2022-09-18T15:20:13.704Z,15.70
2022-09-18T15:22:40.280Z,15.70
2022-09-18T15:25:14.363Z,15.70
2022-09-18T15:27:42.792Z,15.70
2022-09-18T15:30:18.667Z,15.70
2022-09-18T15:32:56.478Z,15.50
2022-09-18T15:35:29.184Z,15.10
2022-09-18T15:38:02.663Z,14.70
2022-09-18T15:40:35.713Z,14.40
2022-09-18T15:43:06.200Z,14.20
2022-09-18T15:45:35.376Z,13.90
2022-09-18T15:48:34.074Z,13.70
2022-09-18T15:51:22.288Z,13.50
2022-09-18T15:54:10.348Z,13.30
2022-09-18T15:56:40.147Z,13.10
2022-09-18T15:59:16.636Z,13.10
2022-09-18T16:01:47.404Z,13.00
2022-09-18T16:04:23.508Z,13.00
2022-09-18T16:07:01.303Z,12.90
2022-09-18T16:09:43.809Z,12.90
2022-09-18T16:12:31.047Z,12.80
2022-09-18T16:15:00.615Z,12.70
2022-09-18T16:17:31.939Z,12.60
2022-09-18T16:20:20.411Z,12.50
2022-09-18T16:22:48.335Z,12.50
2022-09-18T16:25:23.980Z,12.40
2022-09-18T16:27:53.573Z,12.30
2022-09-18T16:30:20.234Z,12.20
2022-09-18T16:32:46.825Z,12.20
2022-09-18T16:35:15.601Z,12.20
2022-09-18T16:37:45.273Z,12.10
2022-09-18T16:40:19.451Z,12.20
2022-09-18T16:42:46.212Z,12.10
2022-09-18T16:45:14.105Z,12.10
2022-09-18T16:47:45.090Z,12.10
2022-09-18T16:50:12.802Z,12.10
2022-09-18T16:52:39.807Z,12.00
2022-09-18T16:55:07.310Z,11.90
2022-09-18T16:57:34.513Z,11.80
2022-09-18T17:00:05.184Z,11.80
2022-09-18T17:02:32.238Z,11.70
2022-09-18T17:05:01.596Z,11.70
2022-09-18T17:07:30.263Z,11.70
2022-09-18T17:09:57.880Z,11.60
2022-09-18T17:12:25.117Z,11.60
2022-09-18T17:14:52.308Z,11.50
2022-09-18T17:17:19.311Z,11.50
2022-09-18T17:19:45.903Z,11.50
2022-09-18T17:22:12.451Z,11.50
2022-09-18T17:24:39.064Z,11.50
2022-09-18T17:27:05.731Z,11.50
2022-09-18T17:29:32.625Z,11.50
2022-09-18T17:31:59.666Z,11.40
2022-09-18T17:34:26.328Z,11.30
2022-09-18T17:36:52.913Z,11.30
2022-09-18T17:39:19.562Z,11.30
2022-09-18T17:41:46.107Z,11.20
2022-09-18T17:44:12.772Z,11.20
2022-09-18T17:46:39.763Z,11.20
2022-09-18T17:49:06.844Z,11.20
2022-09-18T17:51:33.411Z,11.20
2022-09-18T17:54:02.845Z,11.20
2022-09-18T17:56:30.516Z,11.10
2022-09-18T17:58:59.717Z,11.10
2022-09-18T18:01:28.075Z,11.10
2022-09-18T18:03:55.170Z,11.00
2022-09-18T18:06:22.171Z,11.00
2022-09-18T18:08:49.898Z,11.00
2022-09-18T18:11:18.977Z,10.90
2022-09-18T18:13:47.556Z,10.90
2022-09-18T18:16:23.667Z,10.90
2022-09-18T18:18:55.653Z,10.90
2022-09-18T18:21:23.095Z,10.90
2022-09-18T18:24:01.597Z,10.90
2022-09-18T18:26:28.716Z,10.90
2022-09-18T18:28:55.423Z,10.90
2022-09-18T18:31:23.266Z,10.90
2022-09-18T18:33:49.971Z,10.90
2022-09-18T18:36:20.942Z,10.90
2022-09-18T18:38:50.390Z,10.90
2022-09-18T18:41:20.292Z,10.90
2022-09-18T18:43:55.287Z,10.90
2022-09-18T18:46:24.281Z,10.90
2022-09-18T18:49:03.107Z,10.90
2022-09-18T18:51:32.650Z,10.90
2022-09-18T18:54:03.644Z,11.00
2022-09-18T18:56:33.433Z,11.00
2022-09-18T18:59:01.605Z,11.00
2022-09-18T19:01:29.371Z,11.00
2022-09-18T19:04:06.537Z,11.00
2022-09-18T19:06:38.776Z,10.90
2022-09-18T19:09:15.091Z,10.90
2022-09-18T19:11:50.696Z,10.90
2022-09-18T19:14:23.265Z,10.90
2022-09-18T19:16:50.562Z,10.90
2022-09-18T19:19:19.654Z,10.90
2022-09-18T19:21:46.851Z,10.90
2022-09-18T19:24:14.014Z,10.80
2022-09-18T19:26:42.016Z,10.80
2022-09-18T19:29:13.359Z,10.80
2022-09-18T19:31:42.548Z,10.70
2022-09-18T19:34:14.725Z,10.70
2022-09-18T19:36:41.680Z,10.70
2022-09-18T19:39:11.138Z,10.70
2022-09-18T19:41:56.024Z,10.60
2022-09-18T19:44:34.615Z,10.50
2022-09-18T19:47:14.153Z,10.50
2022-09-18T19:49:41.129Z,10.40
2022-09-18T19:52:19.716Z,10.40
2022-09-18T19:54:47.728Z,10.30
2022-09-18T19:57:15.489Z,10.30
2022-09-18T19:59:42.617Z,10.30
2022-09-18T20:02:13.223Z,10.20
2022-09-18T20:04:41.049Z,10.20
2022-09-18T20:07:08.339Z,10.10
2022-09-18T20:09:34.897Z,10.10
2022-09-18T20:12:02.089Z,10.10
2022-09-18T20:14:28.972Z,10.10
2022-09-18T20:16:55.558Z,10.10
2022-09-18T20:19:24.161Z,10.10
2022-09-18T20:21:50.991Z,10.10
2022-09-18T20:24:18.014Z,10.10
2022-09-18T20:26:44.949Z,10.10
2022-09-18T20:29:16.339Z,10.10
2022-09-18T20:31:44.174Z,10.10
2022-09-18T20:34:11.045Z,10.10
2022-09-18T20:36:38.053Z,10.10
2022-09-18T20:39:04.972Z,10.10
2022-09-18T20:41:31.769Z,10.00
2022-09-18T20:44:04.665Z,10.00
2022-09-18T20:46:36.294Z,10.00
2022-09-18T20:49:04.320Z,10.00
2022-09-18T20:51:34.604Z,9.90
2022-09-18T20:54:02.317Z,10.00
2022-09-18T20:56:35.921Z,9.90
2022-09-18T20:59:07.444Z,9.90
2022-09-18T21:01:40.182Z,9.90
2022-09-18T21:04:08.838Z,9.80
2022-09-18T21:06:36.273Z,9.80
2022-09-18T21:09:06.855Z,9.80
2022-09-18T21:11:37.288Z,9.80
2022-09-18T21:14:05.298Z,9.80
2022-09-18T21:16:35.078Z,9.80
2022-09-18T21:19:03.787Z,9.90
2022-09-18T21:21:33.884Z,9.90
2022-09-18T21:24:01.833Z,9.90
2022-09-18T21:26:34.182Z,9.90
2022-09-18T21:29:02.104Z,9.90
2022-09-18T21:31:30.183Z,9.90
2022-09-18T21:33:58.761Z,9.90
2022-09-18T21:36:26.718Z,9.90
2022-09-18T21:38:54.822Z,9.90
2022-09-18T21:41:22.694Z,9.90
2022-09-18T21:43:50.503Z,9.90
2022-09-18T21:46:19.719Z,9.80
2022-09-18T21:48:48.239Z,9.80
2022-09-18T21:51:16.613Z,9.80
2022-09-18T21:53:44.357Z,9.80
2022-09-18T21:56:16.796Z,9.80
2022-09-18T21:58:44.978Z,9.70
2022-09-18T22:01:32.143Z,9.70
2022-09-18T22:04:00.784Z,9.70
2022-09-18T22:06:29.714Z,9.70
2022-09-18T22:08:58.001Z,9.60
2022-09-18T22:11:27.655Z,9.60
2022-09-18T22:13:56.190Z,9.60
2022-09-18T22:16:26.153Z,9.60
2022-09-18T22:18:56.501Z,9.60
2022-09-18T22:21:32.284Z,9.50
2022-09-18T22:24:08.812Z,9.50
2022-09-18T22:26:41.561Z,9.50
2022-09-18T22:29:20.692Z,9.40
2022-09-18T22:31:49.096Z,9.40
2022-09-18T22:34:22.020Z,9.30
2022-09-18T22:36:49.742Z,9.30
2022-09-18T22:39:18.186Z,9.30
2022-09-18T22:41:45.236Z,9.30
2022-09-18T22:44:12.291Z,9.30
2022-09-18T22:46:40.998Z,9.20
2022-09-18T22:49:11.676Z,9.20
2022-09-18T22:51:39.520Z,9.20
2022-09-18T22:54:07.555Z,9.20
2022-09-18T22:56:44.696Z,9.10
2022-09-18T22:59:12.892Z,9.20
2022-09-18T23:01:42.689Z,9.20
2022-09-18T23:04:09.739Z,9.10
2022-09-18T23:06:36.314Z,9.10
2022-09-18T23:09:04.521Z,9.10
2022-09-18T23:11:33.073Z,9.10
2022-09-18T23:14:18.201Z,9.10
2022-09-18T23:16:45.153Z,9.10
2022-09-18T23:19:33.242Z,9.10
2022-09-18T23:22:00.358Z,9.20
2022-09-18T23:24:27.610Z,9.20
2022-09-18T23:26:57.204Z,9.20
2022-09-18T23:29:24.987Z,9.30
2022-09-18T23:31:53.503Z,9.30
2022-09-18T23:34:22.168Z,9.30
2022-09-18T23:36:51.236Z,9.40
2022-09-18T23:39:22.206Z,9.40
2022-09-18T23:41:49.617Z,9.50
2022-09-18T23:44:18.538Z,9.60
2022-09-18T23:46:45.715Z,9.60
2022-09-18T23:49:13.832Z,9.70
2022-09-18T23:51:43.046Z,9.70
2022-09-18T23:54:19.159Z,9.70
2022-09-18T23:56:46.352Z,9.80
2022-09-18T23:59:15.983Z,9.80
